Time;durP1;ratioP1;P1;durP2;ratioP2;P2;SDS_P1;SDS_P2;PMS_P1;PMS_P2;Temp;Humidity;BMP_temperature;BMP_pressure;BME280_temperature;BME280_humidity;BME280_pressure;Samples;Min_cycle;Max_cycle;Signal;HPM_P1;HPM_P2
2021/10/01 00:01:28;;;;;;;4.93;1.33;;;;;;;;;;5059088;28;20202;-80
2021/10/01 00:03:56;;;;;;;5.40;1.57;;;;;;;;;;5052921;28;20231;-81
2021/10/01 00:06:24;;;;;;;4.73;1.10;;;;;;;;;;5052177;28;20289;-81
2021/10/01 00:08:52;;;;;;;6.60;1.60;;;;;;;;;;5070750;28;20234;-81
2021/10/01 00:11:19;;;;;;;4.57;1.60;;;;;;;;;;5068254;28;20302;-81
2021/10/01 00:13:46;;;;;;;5.27;1.37;;;;;;;;;;5053059;28;20272;-81
2021/10/01 00:16:14;;;;;;;3.07;1.10;;;;;;;;;;5055746;28;20287;-81
2021/10/01 00:18:41;;;;;;;2.67;1.20;;;;;;;;;;5072100;28;20238;-80
2021/10/01 00:21:08;;;;;;;5.60;1.23;;;;;;;;;;5052777;28;20681;-81
2021/10/01 00:23:37;;;;;;;3.83;1.07;;;;;;;;;;5052280;28;20225;-81
2021/10/01 00:26:04;;;;;;;5.07;1.20;;;;;;;;;;5053000;28;20231;-81
2021/10/01 00:28:31;;;;;;;4.10;1.20;;;;;;;;;;5052765;28;20289;-80
2021/10/01 00:30:59;;;;;;;5.10;1.17;;;;;;;;;;5067573;28;20258;-81
2021/10/01 00:33:26;;;;;;;6.87;1.30;;;;;;;;;;5071658;28;20234;-81
2021/10/01 00:35:53;;;;;;;2.47;0.90;;;;;;;;;;5070122;28;20291;-80
2021/10/01 00:38:20;;;;;;;4.53;1.13;;;;;;;;;;5057175;28;20290;-81
2021/10/01 00:41:05;;;;;;;3.57;1.37;;;;;;;;;;5070493;28;20282;-79
2021/10/01 00:43:32;;;;;;;3.63;1.20;;;;;;;;;;5061602;28;20301;-81
2021/10/01 00:45:59;;;;;;;3.30;1.07;;;;;;;;;;5056441;28;20227;-81
2021/10/01 00:48:26;;;;;;;3.93;1.70;;;;;;;;;;5071171;28;20230;-81
2021/10/01 00:50:53;;;;;;;5.67;1.30;;;;;;;;;;5057978;28;20348;-81
2021/10/01 00:53:22;;;;;;;4.70;1.60;;;;;;;;;;5052121;28;20287;-81
2021/10/01 00:55:49;;;;;;;3.87;1.10;;;;;;;;;;5057682;28;20245;-80
2021/10/01 00:58:17;;;;;;;6.93;1.30;;;;;;;;;;5062108;28;20306;-81
2021/10/01 01:00:56;;;;;;;3.20;1.10;;;;;;;;;;5072097;28;20678;-81
2021/10/01 01:03:24;;;;;;;4.63;1.37;;;;;;;;;;5071507;28;20221;-81
2021/10/01 01:05:56;;;;;;;4.53;1.10;;;;;;;;;;5071211;28;20298;-81
2021/10/01 01:08:25;;;;;;;3.43;1.00;;;;;;;;;;5071411;28;20583;-81
2021/10/01 01:10:56;;;;;;;2.70;1.23;;;;;;;;;;5069062;28;20229;-81
2021/10/01 01:13:26;;;;;;;6.13;1.33;;;;;;;;;;5055826;28;20260;-80
2021/10/01 01:15:56;;;;;;;8.50;1.30;;;;;;;;;;5071151;28;20203;-81
2021/10/01 01:18:25;;;;;;;5.63;0.93;;;;;;;;;;5057736;28;20436;-81
2021/10/01 01:20:53;;;;;;;5.07;1.10;;;;;;;;;;5056411;28;20226;-81
2021/10/01 01:23:26;;;;;;;2.57;1.00;;;;;;;;;;5072089;28;20294;-81
2021/10/01 01:25:59;;;;;;;4.80;1.20;;;;;;;;;;5071623;28;20282;-80
2021/10/01 01:28:35;;;;;;;4.40;1.23;;;;;;;;;;5054902;28;20204;-80
2021/10/01 01:31:06;;;;;;;4.27;1.33;;;;;;;;;;5051004;28;20254;-81
2021/10/01 01:33:35;;;;;;;2.77;1.00;;;;;;;;;;5051086;28;20299;-80
2021/10/01 01:36:03;;;;;;;4.30;1.10;;;;;;;;;;5052646;28;20238;-80
2021/10/01 01:38:32;;;;;;;8.87;1.63;;;;;;;;;;5054039;28;20238;-80
2021/10/01 01:41:01;;;;;;;5.80;1.30;;;;;;;;;;5031651;28;20283;-80
2021/10/01 01:43:29;;;;;;;6.00;1.30;;;;;;;;;;5032004;28;20291;-80
2021/10/01 01:45:56;;;;;;;3.37;1.10;;;;;;;;;;5057548;28;20197;-81
2021/10/01 01:48:24;;;;;;;6.13;1.60;;;;;;;;;;5071284;28;20580;-80
2021/10/01 01:50:53;;;;;;;3.10;1.10;;;;;;;;;;5069401;28;20226;-80
2021/10/01 01:53:22;;;;;;;5.77;1.53;;;;;;;;;;5071515;28;20233;-80
2021/10/01 01:55:50;;;;;;;5.83;1.50;;;;;;;;;;5070728;28;20261;-80
2021/10/01 01:58:17;;;;;;;4.83;1.47;;;;;;;;;;5059488;28;20239;-81
2021/10/01 02:00:45;;;;;;;3.13;1.20;;;;;;;;;;5061350;28;20744;-81
2021/10/01 02:03:13;;;;;;;5.03;1.50;;;;;;;;;;5070946;28;20257;-80
2021/10/01 02:05:40;;;;;;;3.67;1.40;;;;;;;;;;5069848;28;20282;-80
2021/10/01 02:08:09;;;;;;;3.77;1.50;;;;;;;;;;5052895;28;20281;-80
2021/10/01 02:10:37;;;;;;;4.20;1.30;;;;;;;;;;5051056;28;20236;-80
2021/10/01 02:13:08;;;;;;;6.10;1.70;;;;;;;;;;5065845;28;20727;-80
2021/10/01 02:15:36;;;;;;;4.13;1.20;;;;;;;;;;5070321;28;20210;-80
2021/10/01 02:18:04;;;;;;;3.40;1.20;;;;;;;;;;5071339;28;20301;-80
2021/10/01 02:20:33;;;;;;;4.77;1.30;;;;;;;;;;5070836;28;20293;-81
2021/10/01 02:23:00;;;;;;;4.33;1.30;;;;;;;;;;5057063;28;20700;-80
2021/10/01 02:28:20;;;;;;;5.07;1.43;;;;;;;;;;5052822;28;20202;-80
2021/10/01 02:30:48;;;;;;;5.13;1.43;;;;;;;;;;5072039;28;20740;-80
2021/10/01 02:33:20;;;;;;;4.80;1.60;;;;;;;;;;5058070;28;20766;-80
2021/10/01 02:35:47;;;;;;;5.37;1.63;;;;;;;;;;5060781;28;20667;-80
2021/10/01 02:38:14;;;;;;;5.53;1.50;;;;;;;;;;5069497;28;20235;-80
2021/10/01 02:40:43;;;;;;;5.87;1.60;;;;;;;;;;5054927;28;20283;-80
2021/10/01 02:43:10;;;;;;;3.47;1.43;;;;;;;;;;5054572;28;20282;-80
2021/10/01 02:45:37;;;;;;;5.20;1.27;;;;;;;;;;5061032;28;20195;-80
2021/10/01 02:48:04;;;;;;;4.70;1.60;;;;;;;;;;5054425;28;20295;-80
2021/10/01 02:50:32;;;;;;;6.67;1.37;;;;;;;;;;5058604;28;20282;-80
2021/10/01 02:53:03;;;;;;;6.10;1.70;;;;;;;;;;5069834;28;20305;-80
2021/10/01 02:55:32;;;;;;;4.90;1.23;;;;;;;;;;5054489;28;20640;-80
2021/10/01 02:58:05;;;;;;;3.93;1.10;;;;;;;;;;5054880;28;20294;-80
2021/10/01 03:00:33;;;;;;;7.43;1.63;;;;;;;;;;5058730;28;20195;-81
2021/10/01 03:03:00;;;;;;;3.80;1.20;;;;;;;;;;5065052;28;20243;-80
2021/10/01 03:05:28;;;;;;;5.00;1.17;;;;;;;;;;5073510;28;20241;-80
2021/10/01 03:07:56;;;;;;;4.90;1.50;;;;;;;;;;5067223;28;20200;-80
2021/10/01 03:10:23;;;;;;;4.23;1.33;;;;;;;;;;5064159;28;20205;-80
2021/10/01 03:12:51;;;;;;;2.57;1.17;;;;;;;;;;5073410;28;20305;-80
2021/10/01 03:15:19;;;;;;;6.37;1.40;;;;;;;;;;5073771;28;20234;-81
2021/10/01 03:17:47;;;;;;;2.90;1.07;;;;;;;;;;5062858;28;20639;-80
2021/10/01 03:20:15;;;;;;;5.23;1.20;;;;;;;;;;5055236;28;20306;-80
2021/10/01 03:22:43;;;;;;;5.23;1.40;;;;;;;;;;5064625;28;20198;-80
2021/10/01 03:25:13;;;;;;;7.03;1.47;;;;;;;;;;5073696;28;20284;-81
2021/10/01 03:27:40;;;;;;;4.27;1.33;;;;;;;;;;5067568;28;20224;-80
2021/10/01 03:30:08;;;;;;;5.70;1.30;;;;;;;;;;5056749;28;20279;-80
2021/10/01 03:32:38;;;;;;;7.93;1.40;;;;;;;;;;5053755;28;20259;-81
2021/10/01 03:35:05;;;;;;;5.43;1.40;;;;;;;;;;5053707;28;20242;-80
2021/10/01 03:37:33;;;;;;;6.07;1.30;;;;;;;;;;5053311;28;20742;-80
2021/10/01 03:40:08;;;;;;;8.33;1.47;;;;;;;;;;5063710;28;20279;-80
2021/10/01 03:42:35;;;;;;;6.57;1.27;;;;;;;;;;5062189;28;20269;-80
2021/10/01 03:45:03;;;;;;;4.00;1.13;;;;;;;;;;5053175;28;20290;-80
2021/10/01 03:47:30;;;;;;;4.63;1.20;;;;;;;;;;5053874;28;20239;-81
2021/10/01 03:49:59;;;;;;;4.87;1.30;;;;;;;;;;5053496;28;20203;-80
2021/10/01 03:52:26;;;;;;;4.67;1.67;;;;;;;;;;5053222;28;20790;-81
2021/10/01 03:54:54;;;;;;;4.63;1.33;;;;;;;;;;5066875;28;20268;-80
2021/10/01 03:57:21;;;;;;;4.20;1.30;;;;;;;;;;5068395;28;20199;-80
2021/10/01 03:59:48;;;;;;;6.20;1.33;;;;;;;;;;5053229;28;20691;-81
2021/10/01 04:02:15;;;;;;;4.53;1.27;;;;;;;;;;5054031;28;20250;-80
2021/10/01 04:04:43;;;;;;;2.67;1.00;;;;;;;;;;5053125;28;20291;-80
2021/10/01 04:07:11;;;;;;;4.33;1.40;;;;;;;;;;5053157;28;20770;-80
2021/10/01 04:09:38;;;;;;;6.03;1.33;;;;;;;;;;5053981;28;20286;-80
2021/10/01 04:12:07;;;;;;;4.77;1.50;;;;;;;;;;5060107;28;20307;-80
2021/10/01 04:14:35;;;;;;;3.80;1.47;;;;;;;;;;5063047;28;20334;-80
2021/10/01 04:17:02;;;;;;;4.50;1.20;;;;;;;;;;5052856;28;20239;-80
2021/10/01 04:19:29;;;;;;;4.40;1.30;;;;;;;;;;5052920;28;20287;-80
2021/10/01 04:21:57;;;;;;;5.67;1.60;;;;;;;;;;5068466;28;20223;-80
2021/10/01 04:24:25;;;;;;;6.17;1.43;;;;;;;;;;5066557;28;20457;-81
2021/10/01 04:26:52;;;;;;;5.90;1.20;;;;;;;;;;5072715;28;20229;-80
2021/10/01 04:29:20;;;;;;;5.47;1.33;;;;;;;;;;5073011;28;20572;-80
2021/10/01 04:31:47;;;;;;;7.33;1.97;;;;;;;;;;5067558;28;20234;-80
2021/10/01 04:34:14;;;;;;;5.43;1.40;;;;;;;;;;5055073;28;20721;-80
2021/10/01 04:36:41;;;;;;;5.27;1.40;;;;;;;;;;5057050;28;20742;-80
2021/10/01 04:39:09;;;;;;;5.27;1.50;;;;;;;;;;5055179;28;20211;-80
2021/10/01 04:41:37;;;;;;;4.60;1.40;;;;;;;;;;5054850;28;20238;-80
2021/10/01 04:44:06;;;;;;;5.07;1.40;;;;;;;;;;5054619;28;20263;-80
2021/10/01 04:46:33;;;;;;;3.63;1.23;;;;;;;;;;5056459;28;20200;-80
2021/10/01 04:49:00;;;;;;;5.80;1.50;;;;;;;;;;5074495;28;20288;-80
2021/10/01 04:51:28;;;;;;;4.70;1.30;;;;;;;;;;5073899;28;20255;-80
2021/10/01 04:53:56;;;;;;;4.73;1.60;;;;;;;;;;5053291;28;20322;-79
2021/10/01 04:56:23;;;;;;;4.57;1.40;;;;;;;;;;5052067;28;20291;-80
2021/10/01 04:58:52;;;;;;;4.97;1.40;;;;;;;;;;5066322;28;20286;-81
2021/10/01 05:01:20;;;;;;;5.97;1.50;;;;;;;;;;5058239;28;20203;-80
2021/10/01 05:03:47;;;;;;;5.10;1.30;;;;;;;;;;5062091;28;20569;-80
2021/10/01 05:06:14;;;;;;;6.87;1.50;;;;;;;;;;5060276;28;20299;-79
2021/10/01 05:08:42;;;;;;;5.37;1.40;;;;;;;;;;5053595;28;20233;-80
2021/10/01 05:11:09;;;;;;;5.47;1.47;;;;;;;;;;5053820;28;20282;-80
2021/10/01 05:13:36;;;;;;;5.73;1.40;;;;;;;;;;5064641;28;20302;-80
2021/10/01 05:16:05;;;;;;;6.07;1.43;;;;;;;;;;5061377;28;20219;-80
2021/10/01 05:18:33;;;;;;;6.20;1.27;;;;;;;;;;5063134;28;20278;-79
2021/10/01 05:21:03;;;;;;;5.30;1.30;;;;;;;;;;5070465;28;20203;-79
2021/10/01 05:23:31;;;;;;;9.37;1.30;;;;;;;;;;5066834;28;20195;-80
2021/10/01 05:25:58;;;;;;;4.67;1.60;;;;;;;;;;5047766;28;20199;-80
2021/10/01 05:28:25;;;;;;;3.80;1.30;;;;;;;;;;5057103;28;20238;-80
2021/10/01 05:30:53;;;;;;;5.17;1.40;;;;;;;;;;5051475;28;20637;-80
2021/10/01 05:33:21;;;;;;;3.77;1.40;;;;;;;;;;5066520;28;20298;-80
2021/10/01 05:35:49;;;;;;;4.97;1.27;;;;;;;;;;5062816;28;20233;-80
2021/10/01 05:38:17;;;;;;;5.00;1.40;;;;;;;;;;5055307;28;20615;-80
2021/10/01 05:40:44;;;;;;;2.73;1.27;;;;;;;;;;5069554;28;20286;-80
2021/10/01 05:43:11;;;;;;;5.23;1.20;;;;;;;;;;5068585;28;20226;-80
2021/10/01 05:45:40;;;;;;;6.03;1.83;;;;;;;;;;5054092;28;20224;-81
2021/10/01 05:48:07;;;;;;;4.43;1.40;;;;;;;;;;5044566;28;20203;-79
2021/10/01 05:50:41;;;;;;;6.27;2.33;;;;;;;;;;5051233;28;20206;-80
2021/10/01 05:53:24;;;;;;;4.40;1.20;;;;;;;;;;5032801;28;20232;-80
2021/10/01 05:55:51;;;;;;;5.37;1.20;;;;;;;;;;5065759;28;20209;-80
2021/10/01 05:58:26;;;;;;;4.87;1.30;;;;;;;;;;5042889;28;20211;-80
2021/10/01 06:00:54;;;;;;;9.40;1.90;;;;;;;;;;5050815;28;20667;-79
2021/10/01 06:03:21;;;;;;;8.63;1.70;;;;;;;;;;5054341;28;20243;-79
2021/10/01 06:05:50;;;;;;;6.60;1.80;;;;;;;;;;5054520;28;20631;-81
2021/10/01 06:08:17;;;;;;;4.83;1.43;;;;;;;;;;5057581;28;20231;-81
2021/10/01 06:10:44;;;;;;;5.20;1.33;;;;;;;;;;5054695;28;20202;-81
2021/10/01 06:13:11;;;;;;;3.80;1.40;;;;;;;;;;5055454;28;20310;-81
2021/10/01 06:15:39;;;;;;;6.03;1.60;;;;;;;;;;5054992;28;20291;-81
2021/10/01 06:18:06;;;;;;;6.17;1.57;;;;;;;;;;5054880;28;20264;-80
2021/10/01 06:20:33;;;;;;;3.87;1.20;;;;;;;;;;5054969;28;20239;-79
2021/10/01 06:23:02;;;;;;;4.07;1.50;;;;;;;;;;5054817;28;20199;-79
2021/10/01 06:25:29;;;;;;;9.87;1.87;;;;;;;;;;5054511;28;20301;-78
2021/10/01 06:27:56;;;;;;;5.57;1.43;;;;;;;;;;5054582;28;20231;-81
2021/10/01 06:30:23;;;;;;;8.87;1.73;;;;;;;;;;5054551;28;20675;-80
2021/10/01 06:32:51;;;;;;;5.10;1.20;;;;;;;;;;5054642;28;20642;-80
2021/10/01 06:35:18;;;;;;;5.00;1.50;;;;;;;;;;5054557;28;20249;-81
2021/10/01 06:37:45;;;;;;;4.20;1.43;;;;;;;;;;5058907;28;20338;-80
2021/10/01 06:40:14;;;;;;;5.70;1.27;;;;;;;;;;5054356;28;20231;-81
2021/10/01 06:42:47;;;;;;;8.30;1.40;;;;;;;;;;5040760;28;20223;-80
2021/10/01 06:45:19;;;;;;;6.40;1.80;;;;;;;;;;5053836;28;20695;-80
2021/10/01 06:47:50;;;;;;;5.67;1.30;;;;;;;;;;5066066;28;20973;-80
2021/10/01 07:23:38;;;;;;;5.17;1.10;;;;;;;;;;5017040;28;20239;-81
2021/10/01 08:18:19;;;;;;;7.33;1.63;;;;;;;;;;5104546;28;20265;-81
2021/10/01 08:19:11;;;;;;;6.67;1.60;;;;;;;;;;5110220;28;20243;-80
2021/10/01 08:21:38;;;;;;;9.03;1.67;;;;;;;;;;5108543;28;20239;-81
2021/10/01 08:24:06;;;;;;;8.30;1.70;;;;;;;;;;5109131;28;20290;-80
2021/10/01 08:26:34;;;;;;;5.27;1.90;;;;;;;;;;5108834;28;20233;-80
2021/10/01 08:29:02;;;;;;;8.93;1.53;;;;;;;;;;5088275;28;20288;-81
2021/10/01 08:31:29;;;;;;;5.13;1.83;;;;;;;;;;5087923;28;20649;-80
2021/10/01 08:33:57;;;;;;;7.93;1.80;;;;;;;;;;5088237;28;20675;-80
2021/10/01 08:36:24;;;;;;;6.43;1.90;;;;;;;;;;5087838;28;20326;-79
2021/10/01 08:38:51;;;;;;;5.27;2.13;;;;;;;;;;5088015;28;20659;-80
2021/10/01 08:41:19;;;;;;;6.37;1.87;;;;;;;;;;5088530;28;20285;-80
2021/10/01 08:43:48;;;;;;;7.20;1.83;;;;;;;;;;5087888;28;20199;-80
2021/10/01 08:46:15;;;;;;;5.47;2.07;;;;;;;;;;5088493;28;20279;-79
2021/10/01 08:48:43;;;;;;;9.47;2.20;;;;;;;;;;5082992;28;20277;-81
2021/10/01 08:51:12;;;;;;;9.10;2.03;;;;;;;;;;5093560;28;20202;-81
2021/10/01 08:53:40;;;;;;;11.47;2.37;;;;;;;;;;5094394;28;20201;-80
2021/10/01 08:56:07;;;;;;;5.13;2.27;;;;;;;;;;5091626;28;20227;-80
2021/10/01 08:58:35;;;;;;;9.10;2.70;;;;;;;;;;5088963;28;20304;-80
2021/10/01 09:01:05;;;;;;;10.77;2.50;;;;;;;;;;5094430;28;20206;-81
2021/10/01 09:03:32;;;;;;;8.00;2.60;;;;;;;;;;5093444;28;20584;-80
2021/10/01 09:05:59;;;;;;;6.10;2.20;;;;;;;;;;5093901;28;20282;-81
2021/10/01 09:08:26;;;;;;;8.33;2.60;;;;;;;;;;5093840;28;20199;-80
2021/10/01 09:10:58;;;;;;;9.17;2.33;;;;;;;;;;5093817;28;20675;-80
2021/10/01 09:13:27;;;;;;;7.80;2.63;;;;;;;;;;5093911;28;20226;-79
2021/10/01 09:16:05;;;;;;;9.70;3.10;;;;;;;;;;5090450;28;20247;-80
2021/10/01 09:18:34;;;;;;;10.10;2.60;;;;;;;;;;5085781;28;20280;-80
2021/10/01 09:21:08;;;;;;;7.67;2.43;;;;;;;;;;5093893;28;20290;-80
2021/10/01 09:23:41;;;;;;;7.67;2.00;;;;;;;;;;5093041;28;20236;-80
2021/10/01 09:26:09;;;;;;;6.87;2.30;;;;;;;;;;5094410;28;20285;-80
2021/10/01 09:28:50;;;;;;;7.37;2.53;;;;;;;;;;5095292;28;20304;-80
2021/10/01 09:31:35;;;;;;;5.47;2.50;;;;;;;;;;5088747;28;20632;-80
2021/10/01 09:34:03;;;;;;;11.07;2.97;;;;;;;;;;5095335;28;20360;-80
2021/10/01 09:36:31;;;;;;;9.43;3.20;;;;;;;;;;5095006;28;20325;-79
2021/10/01 09:38:59;;;;;;;9.30;3.20;;;;;;;;;;5095147;28;20233;-81
2021/10/01 09:41:28;;;;;;;8.07;3.40;;;;;;;;;;5095455;28;20285;-82
2021/10/01 09:44:00;;;;;;;9.23;2.93;;;;;;;;;;5095232;28;20633;-81
2021/10/01 09:46:36;;;;;;;10.80;2.87;;;;;;;;;;5095079;28;20201;-82
2021/10/01 09:49:04;;;;;;;7.37;2.77;;;;;;;;;;5094975;28;20252;-82
2021/10/01 09:51:31;;;;;;;6.33;3.13;;;;;;;;;;5094450;28;20198;-82
2021/10/01 09:54:01;;;;;;;7.47;2.80;;;;;;;;;;5093379;28;20241;-82
2021/10/01 09:56:30;;;;;;;6.90;2.57;;;;;;;;;;5083378;28;20254;-81
2021/10/01 09:59:10;;;;;;;9.63;3.00;;;;;;;;;;5093875;28;20539;-81
2021/10/01 10:01:57;;;;;;;7.70;2.80;;;;;;;;;;5088193;28;20238;-82
2021/10/01 10:04:26;;;;;;;10.33;2.73;;;;;;;;;;5073725;28;20293;-81
2021/10/01 10:06:53;;;;;;;7.13;2.80;;;;;;;;;;5083308;28;20226;-81
2021/10/01 10:09:31;;;;;;;8.07;3.13;;;;;;;;;;5073340;28;20333;-82
2021/10/01 10:11:58;;;;;;;7.30;2.90;;;;;;;;;;5073400;28;20199;-82
2021/10/01 10:14:25;;;;;;;9.07;2.80;;;;;;;;;;5083331;28;20670;-81
2021/10/01 10:16:53;;;;;;;8.23;2.90;;;;;;;;;;5079637;28;20309;-80
2021/10/01 10:19:23;;;;;;;9.73;3.40;;;;;;;;;;5076579;28;20241;-80
2021/10/01 10:21:51;;;;;;;6.87;3.90;;;;;;;;;;5082421;28;20291;-80
2021/10/01 10:24:18;;;;;;;7.97;3.40;;;;;;;;;;5072715;28;20231;-80
2021/10/01 10:26:46;;;;;;;8.30;3.67;;;;;;;;;;5080716;28;20895;-80
2021/10/01 10:29:14;;;;;;;9.13;3.87;;;;;;;;;;5072943;28;20286;-81
2021/10/01 10:31:44;;;;;;;8.93;3.37;;;;;;;;;;5072900;28;20195;-81
2021/10/01 10:34:18;;;;;;;9.53;3.30;;;;;;;;;;5088781;28;20226;-81
2021/10/01 10:36:47;;;;;;;7.20;3.50;;;;;;;;;;5091897;28;20665;-81
2021/10/01 10:39:33;;;;;;;11.23;5.53;;;;;;;;;;5091968;28;20201;-80
2021/10/01 10:42:08;;;;;;;11.87;6.40;;;;;;;;;;5083640;28;20200;-80
2021/10/01 10:44:41;;;;;;;10.57;4.80;;;;;;;;;;5072464;28;20285;-81
2021/10/01 10:47:08;;;;;;;12.37;5.00;;;;;;;;;;5071950;28;20286;-81
2021/10/01 10:49:35;;;;;;;10.93;4.60;;;;;;;;;;5072359;28;20290;-80
2021/10/01 10:52:06;;;;;;;7.70;4.13;;;;;;;;;;5071899;28;20235;-80
2021/10/01 10:54:34;;;;;;;8.47;5.30;;;;;;;;;;5072677;28;20238;-80
2021/10/01 10:57:21;;;;;;;8.43;4.90;;;;;;;;;;5072425;28;20265;-79
2021/10/01 10:59:50;;;;;;;9.00;4.33;;;;;;;;;;5077152;28;20194;-80
2021/10/01 11:02:19;;;;;;;11.53;4.10;;;;;;;;;;5091649;28;20705;-80
2021/10/01 11:04:49;;;;;;;9.70;4.10;;;;;;;;;;5087026;28;20191;-80
2021/10/01 11:07:31;;;;;;;8.43;3.90;;;;;;;;;;5072211;28;20230;-80
2021/10/01 11:10:18;;;;;;;8.23;3.50;;;;;;;;;;5071726;28;20234;-80
2021/10/01 11:12:46;;;;;;;7.50;3.57;;;;;;;;;;5071815;28;20231;-81
2021/10/01 11:15:26;;;;;;;6.60;3.30;;;;;;;;;;5071446;28;20230;-80
2021/10/01 11:18:13;;;;;;;7.27;3.90;;;;;;;;;;5072206;28;20789;-81
2021/10/01 11:20:40;;;;;;;4.23;3.60;;;;;;;;;;5072029;28;20203;-80
2021/10/01 11:23:17;;;;;;;8.83;3.40;;;;;;;;;;5071679;28;20290;-80
2021/10/01 11:25:45;;;;;;;5.50;3.60;;;;;;;;;;5081215;28;20296;-80
2021/10/01 11:28:13;;;;;;;5.83;3.63;;;;;;;;;;5091491;28;20285;-80
2021/10/01 11:30:42;;;;;;;6.70;3.30;;;;;;;;;;5090580;28;20289;-80
2021/10/01 11:33:11;;;;;;;4.23;3.13;;;;;;;;;;5092078;28;20202;-79
2021/10/01 11:35:48;;;;;;;5.30;3.20;;;;;;;;;;5082593;28;20238;-81
2021/10/01 11:38:22;;;;;;;5.67;3.57;;;;;;;;;;5071636;28;20302;-80
2021/10/01 11:40:50;;;;;;;6.23;3.97;;;;;;;;;;5071894;28;20201;-80
2021/10/01 11:43:17;;;;;;;7.60;3.90;;;;;;;;;;5071799;28;20226;-81
2021/10/01 11:45:46;;;;;;;6.00;3.80;;;;;;;;;;5076653;28;20281;-80
2021/10/01 11:48:14;;;;;;;6.50;3.97;;;;;;;;;;5092017;28;20202;-80
2021/10/01 11:50:43;;;;;;;8.47;4.13;;;;;;;;;;5091992;28;20648;-80
2021/10/01 11:53:17;;;;;;;7.13;4.40;;;;;;;;;;5084451;28;20194;-80
2021/10/01 11:55:51;;;;;;;5.70;4.80;;;;;;;;;;5071871;28;20230;-80
2021/10/01 11:58:19;;;;;;;6.20;4.80;;;;;;;;;;5071155;28;20785;-80
2021/10/01 12:00:47;;;;;;;7.97;5.60;;;;;;;;;;5071812;28;20241;-81
2021/10/01 12:03:15;;;;;;;8.93;6.17;;;;;;;;;;5071506;28;20417;-80
2021/10/01 12:05:46;;;;;;;10.00;6.23;;;;;;;;;;5074374;28;20241;-81
2021/10/01 12:08:14;;;;;;;8.87;6.40;;;;;;;;;;5091722;28;20202;-81
2021/10/01 12:10:42;;;;;;;7.73;6.30;;;;;;;;;;5091623;28;20226;-81
2021/10/01 12:13:11;;;;;;;10.27;6.40;;;;;;;;;;5091024;28;20233;-81
2021/10/01 12:15:46;;;;;;;11.40;7.03;;;;;;;;;;5091120;28;20215;-81
2021/10/01 12:18:31;;;;;;;9.67;5.90;;;;;;;;;;5075588;28;20301;-81
2021/10/01 12:21:01;;;;;;;7.73;5.73;;;;;;;;;;5071117;28;20238;-81
2021/10/01 12:23:29;;;;;;;6.97;5.40;;;;;;;;;;5073388;28;20242;-81
2021/10/01 12:25:57;;;;;;;9.67;6.03;;;;;;;;;;5085796;28;20242;-81
2021/10/01 12:28:25;;;;;;;8.97;5.70;;;;;;;;;;5095356;28;20195;-82
2021/10/01 12:31:01;;;;;;;8.37;4.97;;;;;;;;;;5094976;28;20204;-81
2021/10/01 12:33:29;;;;;;;8.77;5.13;;;;;;;;;;5077353;28;20286;-82
2021/10/01 12:35:56;;;;;;;7.27;4.70;;;;;;;;;;5075098;28;20325;-81
2021/10/01 12:38:25;;;;;;;9.37;5.00;;;;;;;;;;5075027;28;20226;-82
2021/10/01 12:41:12;;;;;;;7.77;5.30;;;;;;;;;;5074786;28;20289;-81
2021/10/01 12:43:44;;;;;;;7.80;5.10;;;;;;;;;;5074413;28;20307;-81
2021/10/01 12:46:11;;;;;;;8.23;5.47;;;;;;;;;;5077601;28;20281;-81
2021/10/01 12:48:39;;;;;;;7.47;5.40;;;;;;;;;;5094950;28;20320;-81
2021/10/01 12:51:21;;;;;;;6.67;5.17;;;;;;;;;;5081075;28;20286;-81
2021/10/01 12:53:50;;;;;;;9.93;5.37;;;;;;;;;;5092214;28;20289;-81
2021/10/01 12:56:18;;;;;;;8.67;5.20;;;;;;;;;;5094721;28;20674;-81
2021/10/01 12:58:45;;;;;;;9.80;5.60;;;;;;;;;;5083496;28;20226;-81
2021/10/01 13:01:19;;;;;;;15.90;5.57;;;;;;;;;;5089313;28;20279;-82
2021/10/01 13:03:50;;;;;;;6.03;5.10;;;;;;;;;;5085364;28;20229;-82
2021/10/01 13:06:30;;;;;;;8.53;4.93;;;;;;;;;;5082395;28;20199;-81
2021/10/01 13:08:58;;;;;;;6.50;4.70;;;;;;;;;;5086771;28;20198;-81
2021/10/01 13:11:25;;;;;;;7.70;4.70;;;;;;;;;;5078807;28;20282;-81
2021/10/01 13:13:53;;;;;;;7.53;4.73;;;;;;;;;;5078673;28;20195;-81
2021/10/01 13:16:27;;;;;;;7.67;5.10;;;;;;;;;;5088334;28;20739;-81
2021/10/01 13:19:11;;;;;;;7.77;4.60;;;;;;;;;;5074266;28;20226;-81
2021/10/01 13:21:54;;;;;;;10.10;4.93;;;;;;;;;;5091500;28;20221;-81
2021/10/01 13:24:28;;;;;;;7.23;4.80;;;;;;;;;;5079065;28;20195;-81
2021/10/01 13:26:55;;;;;;;9.70;4.97;;;;;;;;;;5092600;28;20600;-80
2021/10/01 13:29:22;;;;;;;9.47;5.00;;;;;;;;;;5094082;28;20226;-80
2021/10/01 13:31:53;;;;;;;7.83;4.90;;;;;;;;;;5092642;28;20237;-81
2021/10/01 13:34:23;;;;;;;9.10;4.50;;;;;;;;;;5073659;28;20211;-80
2021/10/01 13:36:50;;;;;;;16.23;6.20;;;;;;;;;;5078356;28;20313;-80
2021/10/01 13:39:17;;;;;;;11.57;5.80;;;;;;;;;;5093858;28;20230;-81
2021/10/01 13:41:46;;;;;;;6.10;4.90;;;;;;;;;;5093847;28;20202;-80
2021/10/01 13:44:15;;;;;;;5.97;4.17;;;;;;;;;;5094319;28;20635;-81
2021/10/01 13:46:42;;;;;;;7.73;4.30;;;;;;;;;;5079660;28;20206;-81
2021/10/01 13:49:09;;;;;;;5.53;4.23;;;;;;;;;;5074491;28;20286;-81
2021/10/01 13:51:37;;;;;;;5.00;3.20;;;;;;;;;;5093524;28;20202;-81
2021/10/01 13:54:04;;;;;;;5.47;3.40;;;;;;;;;;5093105;28;20654;-80
2021/10/01 13:56:31;;;;;;;3.20;2.80;;;;;;;;;;5077694;28;20290;-81
2021/10/01 13:59:00;;;;;;;4.33;2.47;;;;;;;;;;5071425;28;20665;-81
2021/10/01 14:01:27;;;;;;;5.10;1.80;;;;;;;;;;5073150;28;20230;-81
2021/10/01 14:03:54;;;;;;;3.47;1.60;;;;;;;;;;5073122;28;20245;-81
2021/10/01 14:06:21;;;;;;;3.00;1.30;;;;;;;;;;5081392;28;20243;-82
2021/10/01 14:08:48;;;;;;;2.90;1.73;;;;;;;;;;5075661;28;20282;-82
2021/10/01 14:11:16;;;;;;;3.50;1.50;;;;;;;;;;5084549;28;20245;-82
2021/10/01 14:13:43;;;;;;;3.67;1.50;;;;;;;;;;5085407;28;20286;-82
2021/10/01 14:16:11;;;;;;;2.47;1.20;;;;;;;;;;5073346;28;20226;-82
2021/10/01 14:18:38;;;;;;;3.23;1.60;;;;;;;;;;5092873;28;20737;-82
2021/10/01 14:21:06;;;;;;;1.50;0.80;;;;;;;;;;5092477;28;20872;-82
2021/10/01 14:23:33;;;;;;;2.72;1.10;;;;;;;;;;5091515;28;20230;-82
2021/10/01 14:26:00;;;;;;;2.83;0.82;;;;;;;;;;5074458;28;20282;-82
2021/10/01 14:28:27;;;;;;;4.18;1.23;;;;;;;;;;5072705;28;20713;-82
2021/10/01 14:30:55;;;;;;;3.53;1.20;;;;;;;;;;5072965;28;20239;-82
2021/10/01 14:33:23;;;;;;;2.80;1.40;;;;;;;;;;5075509;28;20286;-81
2021/10/01 14:35:52;;;;;;;4.00;1.30;;;;;;;;;;5083330;28;20663;-80
2021/10/01 14:38:19;;;;;;;3.85;1.15;;;;;;;;;;5092529;28;20242;-81
2021/10/01 14:40:47;;;;;;;4.45;1.30;;;;;;;;;;5092507;28;20662;-81
2021/10/01 14:43:14;;;;;;;2.47;1.30;;;;;;;;;;5093594;28;20261;-80
2021/10/01 14:45:41;;;;;;;3.85;1.42;;;;;;;;;;5094359;28;20271;-80
2021/10/01 14:48:08;;;;;;;4.00;2.10;;;;;;;;;;5095811;28;20218;-78
2021/10/01 14:50:37;;;;;;;3.83;1.85;;;;;;;;;;5097951;28;20237;-81
2021/10/01 14:53:04;;;;;;;5.05;2.78;;;;;;;;;;5089547;28;20291;-80
2021/10/01 14:55:31;;;;;;;4.30;2.70;;;;;;;;;;5096403;28;20252;-80
2021/10/01 14:57:58;;;;;;;6.03;2.70;;;;;;;;;;5097560;28;20302;-79
2021/10/01 15:00:26;;;;;;;3.92;2.67;;;;;;;;;;5097678;28;20226;-81
2021/10/01 15:02:54;;;;;;;3.38;1.95;;;;;;;;;;5096497;28;20276;-81
2021/10/01 15:05:21;;;;;;;5.60;2.00;;;;;;;;;;5095037;28;20285;-81
2021/10/01 15:07:50;;;;;;;4.57;2.15;;;;;;;;;;5095998;28;20244;-81
2021/10/01 15:10:18;;;;;;;4.10;1.98;;;;;;;;;;5095425;28;20202;-81
2021/10/01 15:12:45;;;;;;;4.70;1.90;;;;;;;;;;5096045;28;20700;-81
2021/10/01 15:15:12;;;;;;;5.25;1.90;;;;;;;;;;5095618;28;20258;-79
2021/10/01 15:17:39;;;;;;;4.15;1.80;;;;;;;;;;5095718;28;20252;-80
2021/10/01 15:20:08;;;;;;;4.82;1.50;;;;;;;;;;5093739;28;20210;-79
2021/10/01 15:22:35;;;;;;;6.30;1.77;;;;;;;;;;5075394;28;20207;-80
2021/10/01 15:25:04;;;;;;;5.95;1.95;;;;;;;;;;5077627;28;20293;-80
2021/10/01 15:27:31;;;;;;;4.30;1.23;;;;;;;;;;5073459;28;20274;-80
2021/10/01 15:30:13;;;;;;;2.97;1.17;;;;;;;;;;5092111;28;20677;-81
2021/10/01 15:32:42;;;;;;;5.73;1.40;;;;;;;;;;5087923;28;20645;-81
2021/10/01 15:35:10;;;;;;;3.63;0.90;;;;;;;;;;5076289;28;20237;-82
2021/10/01 15:37:38;;;;;;;3.30;1.10;;;;;;;;;;5089644;28;20206;-82
2021/10/01 15:40:07;;;;;;;4.57;1.20;;;;;;;;;;5076317;28;20705;-80
2021/10/01 15:42:34;;;;;;;4.07;0.80;;;;;;;;;;5087987;28;20630;-81
2021/10/01 15:45:01;;;;;;;3.17;0.70;;;;;;;;;;5076916;28;20281;-82
2021/10/01 15:47:28;;;;;;;3.03;0.90;;;;;;;;;;5073520;28;20242;-81
2021/10/01 15:49:56;;;;;;;5.63;0.97;;;;;;;;;;5091280;28;20277;-82
2021/10/01 15:52:23;;;;;;;5.63;1.30;;;;;;;;;;5092182;28;20248;-82
2021/10/01 15:54:51;;;;;;;6.40;1.10;;;;;;;;;;5090834;28;20233;-82
2021/10/01 15:57:20;;;;;;;4.70;0.80;;;;;;;;;;5079110;28;20234;-82
2021/10/01 15:59:47;;;;;;;3.23;0.90;;;;;;;;;;5081194;28;20238;-82
2021/10/01 16:02:14;;;;;;;11.33;8.03;;;;;;;;;;5082951;28;20314;-81
2021/10/01 16:04:41;;;;;;;4.20;1.60;;;;;;;;;;5081063;28;20199;-81
2021/10/01 16:07:09;;;;;;;6.20;1.50;;;;;;;;;;5089449;28;20226;-81
2021/10/01 16:09:38;;;;;;;3.93;1.00;;;;;;;;;;5086512;28;20198;-80
2021/10/01 16:12:06;;;;;;;3.53;0.97;;;;;;;;;;5095275;28;20195;-81
2021/10/01 16:14:35;;;;;;;3.33;0.87;;;;;;;;;;5095104;28;20203;-81
2021/10/01 16:17:11;;;;;;;5.10;1.27;;;;;;;;;;5092741;28;20628;-82
2021/10/01 16:19:38;;;;;;;4.10;1.00;;;;;;;;;;5092775;28;20214;-81
2021/10/01 16:22:05;;;;;;;6.63;1.10;;;;;;;;;;5094950;28;20293;-80